createdAt,value
2018-08-30T00:01:08.178Z,15.30
2018-08-30T00:03:36.593Z,15.30
2018-08-30T00:06:05.081Z,15.20
2018-08-30T00:08:33.560Z,15.30
2018-08-30T00:11:01.932Z,15.30
2018-08-30T00:13:30.340Z,15.20
2018-08-30T00:15:58.736Z,15.20
2018-08-30T00:18:27.137Z,15.30
2018-08-30T00:20:55.525Z,15.20
2018-08-30T00:23:23.924Z,15.20
2018-08-30T00:25:52.384Z,15.20
2018-08-30T00:28:20.801Z,15.20
2018-08-30T00:30:49.253Z,15.20
2018-08-30T00:33:17.668Z,15.20
2018-08-30T00:35:46.136Z,15.20
2018-08-30T00:38:14.732Z,15.20
2018-08-30T00:40:43.132Z,15.20
2018-08-30T00:43:11.532Z,15.20
2018-08-30T00:45:39.927Z,15.10
2018-08-30T00:48:08.376Z,15.10
2018-08-30T00:50:36.760Z,15.10
2018-08-30T00:53:05.273Z,15.10
2018-08-30T00:55:33.704Z,15.10
2018-08-30T00:58:02.091Z,15.10
2018-08-30T01:00:30.542Z,15.10
2018-08-30T01:02:59.017Z,15.10
2018-08-30T01:05:27.478Z,15.10
2018-08-30T01:07:55.897Z,15.10
2018-08-30T01:10:24.298Z,15.10
2018-08-30T01:12:54.267Z,15.10
2018-08-30T01:15:24.392Z,15.10
2018-08-30T01:17:52.880Z,15.20
2018-08-30T01:20:21.728Z,15.10
2018-08-30T01:22:50.165Z,15.10
2018-08-30T01:25:18.599Z,15.10
2018-08-30T01:27:47.280Z,15.10
2018-08-30T01:30:15.695Z,15.10
2018-08-30T01:32:44.148Z,15.10
2018-08-30T01:35:12.624Z,15.10
2018-08-30T01:37:41.124Z,15.10
2018-08-30T01:40:09.592Z,15.10
2018-08-30T01:42:38.000Z,15.10
2018-08-30T01:45:06.682Z,15.10
2018-08-30T01:47:35.119Z,15.10
2018-08-30T01:50:03.609Z,15.10
2018-08-30T01:52:32.029Z,15.10
2018-08-30T01:55:00.464Z,15.10
2018-08-30T01:57:28.860Z,15.00
2018-08-30T01:59:57.282Z,15.00
2018-08-30T02:02:25.683Z,15.00
2018-08-30T02:04:54.112Z,15.10
2018-08-30T02:07:22.541Z,15.10
2018-08-30T02:09:50.941Z,15.10
2018-08-30T02:12:19.352Z,15.10
2018-08-30T02:14:47.728Z,15.10
2018-08-30T02:17:16.146Z,15.00
2018-08-30T02:19:44.561Z,15.10
2018-08-30T02:22:12.965Z,15.00
2018-08-30T02:24:41.365Z,15.00
2018-08-30T02:27:09.753Z,15.00
2018-08-30T02:29:38.173Z,15.00
2018-08-30T02:32:06.806Z,15.10
2018-08-30T02:34:35.188Z,15.10
2018-08-30T02:37:03.678Z,15.10
2018-08-30T02:39:32.203Z,15.10
2018-08-30T02:42:00.613Z,15.10
2018-08-30T02:44:29.288Z,15.10
2018-08-30T02:46:57.929Z,15.10
2018-08-30T02:49:26.342Z,15.10
2018-08-30T02:51:54.744Z,15.10
2018-08-30T02:54:23.142Z,15.00
2018-08-30T02:56:51.532Z,15.10
2018-08-30T02:59:19.945Z,15.00
2018-08-30T03:01:48.359Z,15.10
2018-08-30T03:04:16.774Z,15.10
2018-08-30T03:06:45.197Z,15.10
2018-08-30T03:09:13.841Z,15.00
2018-08-30T03:11:42.228Z,15.10
2018-08-30T03:14:10.703Z,15.10
2018-08-30T03:16:39.101Z,15.00
2018-08-30T03:19:07.628Z,15.00
2018-08-30T03:21:36.031Z,14.90
2018-08-30T03:24:04.454Z,14.90
2018-08-30T03:26:32.921Z,14.90
2018-08-30T03:29:01.352Z,15.00
2018-08-30T03:31:30.432Z,14.90
2018-08-30T03:33:58.861Z,14.90
2018-08-30T03:36:27.341Z,14.90
2018-08-30T03:38:55.724Z,14.90
2018-08-30T03:41:24.122Z,14.90
2018-08-30T03:43:52.504Z,14.90
2018-08-30T03:46:20.956Z,14.90
2018-08-30T03:48:49.345Z,14.80
2018-08-30T03:51:17.752Z,14.80
2018-08-30T03:53:46.197Z,14.80
2018-08-30T03:56:14.580Z,14.80
2018-08-30T03:58:42.984Z,14.80
2018-08-30T04:01:11.385Z,14.70
2018-08-30T04:03:39.794Z,14.70
2018-08-30T04:06:08.177Z,14.70
2018-08-30T04:08:36.576Z,14.80
2018-08-30T04:11:05.041Z,14.80
2018-08-30T04:13:33.495Z,14.80
2018-08-30T04:16:01.864Z,14.70
2018-08-30T04:18:30.284Z,14.70
2018-08-30T04:20:58.672Z,14.80
2018-08-30T04:23:27.068Z,14.80
2018-08-30T04:25:55.476Z,14.70
2018-08-30T04:28:23.867Z,14.80
2018-08-30T04:30:52.359Z,14.80
2018-08-30T04:33:20.845Z,14.80
2018-08-30T04:35:49.237Z,14.80
2018-08-30T04:38:17.657Z,14.80
2018-08-30T04:40:46.371Z,14.80
2018-08-30T04:43:14.764Z,14.80
2018-08-30T04:45:43.140Z,14.90
2018-08-30T04:48:11.556Z,14.90
2018-08-30T04:50:39.999Z,14.90
2018-08-30T04:53:08.363Z,14.90
2018-08-30T04:55:36.776Z,14.90
2018-08-30T04:58:05.538Z,14.90
2018-08-30T05:00:33.960Z,14.90
2018-08-30T05:03:02.368Z,15.00
2018-08-30T05:05:30.763Z,14.90
2018-08-30T05:07:59.188Z,14.90
2018-08-30T05:10:27.619Z,15.00
2018-08-30T05:12:56.023Z,15.00
2018-08-30T05:15:24.442Z,15.00
2018-08-30T05:17:52.954Z,15.00
2018-08-30T05:20:21.351Z,15.00
2018-08-30T05:22:49.918Z,15.00
2018-08-30T05:25:18.377Z,15.00
2018-08-30T05:27:46.811Z,15.00
2018-08-30T05:30:15.226Z,15.00
2018-08-30T05:32:43.616Z,14.90
2018-08-30T05:35:12.013Z,14.90
2018-08-30T05:37:40.432Z,14.90
2018-08-30T05:40:08.832Z,14.90
2018-08-30T05:42:37.265Z,14.90
2018-08-30T05:45:05.708Z,14.90
2018-08-30T05:47:34.164Z,14.90
2018-08-30T05:50:02.582Z,14.90
2018-08-30T05:52:30.988Z,14.90
2018-08-30T05:54:59.423Z,14.90
2018-08-30T05:57:27.829Z,15.00
2018-08-30T05:59:56.244Z,15.20
2018-08-30T06:02:24.707Z,15.20
2018-08-30T06:04:53.104Z,15.20
2018-08-30T06:07:21.542Z,15.20
2018-08-30T06:09:49.908Z,15.30
2018-08-30T06:12:18.299Z,15.40
2018-08-30T06:14:46.706Z,15.50
2018-08-30T06:17:15.086Z,15.50
2018-08-30T06:19:43.500Z,15.50
2018-08-30T06:22:11.916Z,15.60
2018-08-30T06:24:40.513Z,15.70
2018-08-30T06:27:08.912Z,15.80
2018-08-30T06:29:37.320Z,15.80
2018-08-30T06:32:06.081Z,15.90
2018-08-30T06:34:34.570Z,15.90
2018-08-30T06:37:02.912Z,16.10
2018-08-30T06:39:31.338Z,16.20
2018-08-30T06:41:59.728Z,16.30
2018-08-30T06:44:28.148Z,16.40
2018-08-30T06:46:56.586Z,16.60
2018-08-30T06:49:24.960Z,16.60
2018-08-30T06:51:53.368Z,16.70
2018-08-30T06:54:21.752Z,16.70
2018-08-30T06:56:50.148Z,16.70
2018-08-30T06:59:18.564Z,16.70
2018-08-30T07:01:46.964Z,16.60
2018-08-30T07:04:15.430Z,16.70
2018-08-30T07:06:43.780Z,16.70
2018-08-30T07:09:12.732Z,16.60
2018-08-30T07:11:41.433Z,16.70
2018-08-30T07:14:09.865Z,16.70
2018-08-30T07:16:38.244Z,16.70
2018-08-30T07:19:06.649Z,16.90
2018-08-30T07:21:35.074Z,16.90
2018-08-30T07:24:03.516Z,17.20
2018-08-30T07:26:31.932Z,17.30
2018-08-30T07:29:00.399Z,17.40
2018-08-30T07:31:28.808Z,17.50
2018-08-30T07:33:57.213Z,17.50
2018-08-30T07:36:25.625Z,17.60
2018-08-30T07:38:54.089Z,17.50
2018-08-30T07:41:22.485Z,17.50
2018-08-30T07:43:50.912Z,17.70
2018-08-30T07:46:19.312Z,17.80
2018-08-30T07:48:47.725Z,17.90
2018-08-30T07:51:16.121Z,18.30
2018-08-30T07:53:44.524Z,18.50
2018-08-30T07:56:13.284Z,18.50
2018-08-30T07:58:41.664Z,18.40
2018-08-30T08:01:10.052Z,18.40
2018-08-30T08:03:38.472Z,18.30
2018-08-30T08:06:07.096Z,18.40
2018-08-30T08:08:35.517Z,18.50
2018-08-30T08:11:04.005Z,18.50
2018-08-30T08:13:32.409Z,18.50
2018-08-30T08:16:00.803Z,18.60
2018-08-30T08:18:29.224Z,18.60
2018-08-30T08:20:57.629Z,18.80
2018-08-30T08:23:26.025Z,18.90
2018-08-30T08:25:54.484Z,18.90
2018-08-30T08:28:22.865Z,18.70
2018-08-30T08:30:51.704Z,18.60
2018-08-30T08:33:20.132Z,18.60
2018-08-30T08:35:48.520Z,18.90
2018-08-30T08:38:16.982Z,19.00
2018-08-30T08:40:45.416Z,18.90
2018-08-30T08:43:13.839Z,18.80
2018-08-30T08:45:42.352Z,18.90
2018-08-30T08:48:10.774Z,19.20
2018-08-30T08:50:39.265Z,19.30
2018-08-30T08:53:07.644Z,19.40
2018-08-30T08:55:36.080Z,19.40
2018-08-30T08:58:04.752Z,19.20
2018-08-30T09:00:33.180Z,19.10
2018-08-30T09:03:01.643Z,19.30
2018-08-30T09:05:30.133Z,19.60
2018-08-30T09:07:58.620Z,19.90
2018-08-30T09:10:27.361Z,20.00
2018-08-30T09:12:55.810Z,19.80
2018-08-30T09:15:24.219Z,19.60
2018-08-30T09:17:52.636Z,19.30
2018-08-30T09:20:21.073Z,19.30
2018-08-30T09:22:49.512Z,19.40
2018-08-30T09:25:18.033Z,19.70
2018-08-30T09:27:46.445Z,19.60
2018-08-30T09:30:14.881Z,19.40
2018-08-30T09:32:43.308Z,19.10
2018-08-30T09:35:11.751Z,19.20
2018-08-30T09:37:40.190Z,19.50
2018-08-30T09:40:08.614Z,19.80
2018-08-30T09:42:37.093Z,20.10
2018-08-30T09:45:05.559Z,20.30
2018-08-30T09:47:33.956Z,20.50
2018-08-30T09:50:02.375Z,20.60
2018-08-30T09:52:30.808Z,20.90
2018-08-30T09:54:59.323Z,20.50
2018-08-30T09:57:27.768Z,20.50
2018-08-30T09:59:56.119Z,20.40
2018-08-30T10:02:29.873Z,20.90
2018-08-30T10:04:58.447Z,21.80
2018-08-30T10:07:26.884Z,22.30
2018-08-30T10:09:55.296Z,23.50
2018-08-30T10:12:23.700Z,24.40
2018-08-30T10:14:52.107Z,24.00
2018-08-30T10:17:20.505Z,24.60
2018-08-30T10:19:48.900Z,25.50
2018-08-30T10:22:17.299Z,26.60
2018-08-30T10:24:45.792Z,27.00
2018-08-30T10:27:14.216Z,26.50
2018-08-30T10:29:42.624Z,25.90
2018-08-30T10:32:11.020Z,25.00
2018-08-30T10:34:39.429Z,24.70
2018-08-30T10:37:07.957Z,25.40
2018-08-30T10:39:36.247Z,26.60
2018-08-30T10:42:04.719Z,27.30
2018-08-30T10:44:33.188Z,28.20
2018-08-30T10:47:01.659Z,27.90
2018-08-30T10:49:30.179Z,28.00
2018-08-30T10:51:58.541Z,27.70
2018-08-30T10:54:26.980Z,28.80
2018-08-30T10:56:55.427Z,28.80
2018-08-30T10:59:23.835Z,28.30
2018-08-30T11:01:52.318Z,28.80
2018-08-30T11:04:20.806Z,29.40
2018-08-30T11:06:49.227Z,28.90
2018-08-30T11:09:17.729Z,28.80
2018-08-30T11:11:46.275Z,28.60
2018-08-30T11:14:14.814Z,28.90
2018-08-30T11:16:43.428Z,26.90
2018-08-30T11:19:11.880Z,25.60
2018-08-30T11:21:40.437Z,26.40
2018-08-30T11:24:09.480Z,27.60
2018-08-30T11:26:37.913Z,28.60
2018-08-30T11:29:06.427Z,26.00
2018-08-30T11:31:34.833Z,25.00
2018-08-30T11:34:03.249Z,25.90
2018-08-30T11:36:31.625Z,26.80
2018-08-30T11:39:00.300Z,27.20
2018-08-30T11:41:28.860Z,27.30
2018-08-30T11:43:57.161Z,26.90
2018-08-30T11:46:25.556Z,25.60
2018-08-30T11:48:54.196Z,24.80
2018-08-30T11:51:22.652Z,25.60
2018-08-30T11:53:51.077Z,26.50
2018-08-30T11:56:19.487Z,27.20
2018-08-30T11:58:48.001Z,28.10
2018-08-30T12:01:16.500Z,28.00
2018-08-30T12:03:46.221Z,27.10
2018-08-30T12:06:14.726Z,27.10
2018-08-30T12:08:43.192Z,27.40
2018-08-30T12:11:12.158Z,27.70
2018-08-30T12:13:40.516Z,28.20
2018-08-30T12:16:08.962Z,28.30
2018-08-30T12:18:37.411Z,28.10
2018-08-30T12:21:05.865Z,28.60
2018-08-30T12:23:34.469Z,29.00
2018-08-30T12:26:02.941Z,27.60
2018-08-30T12:28:31.664Z,26.60
2018-08-30T12:31:01.091Z,26.80
2018-08-30T12:33:29.546Z,26.90
2018-08-30T12:35:58.218Z,27.50
2018-08-30T12:38:26.394Z,27.70
2018-08-30T12:40:54.833Z,27.90
2018-08-30T12:43:23.315Z,26.40
2018-08-30T12:45:51.795Z,25.50
2018-08-30T12:48:20.151Z,25.10
2018-08-30T12:50:48.718Z,25.50
2018-08-30T12:53:17.039Z,25.90
2018-08-30T12:55:45.607Z,26.20
2018-08-30T12:58:14.039Z,26.50
2018-08-30T13:00:42.492Z,26.00
2018-08-30T13:03:10.923Z,25.50
2018-08-30T13:05:39.562Z,24.60
2018-08-30T13:08:07.786Z,24.40
2018-08-30T13:10:36.529Z,24.80
2018-08-30T13:13:04.872Z,24.60
2018-08-30T13:15:33.745Z,25.00
2018-08-30T13:18:01.811Z,25.30
2018-08-30T13:20:30.311Z,25.60
2018-08-30T13:22:58.792Z,25.00
2018-08-30T13:25:27.603Z,24.40
2018-08-30T13:27:55.860Z,23.60
2018-08-30T13:30:24.517Z,23.40
2018-08-30T13:32:52.906Z,23.00
2018-08-30T13:35:21.415Z,23.20
2018-08-30T13:37:49.867Z,23.50
2018-08-30T13:40:18.532Z,23.90
2018-08-30T13:42:46.601Z,23.60
2018-08-30T13:45:15.038Z,23.80
2018-08-30T13:47:43.390Z,23.80
2018-08-30T13:50:12.130Z,23.50
2018-08-30T13:52:40.521Z,23.00
2018-08-30T13:55:08.948Z,22.50
2018-08-30T13:57:37.597Z,22.40
2018-08-30T14:00:06.366Z,22.30
2018-08-30T14:02:34.636Z,22.40
2018-08-30T14:05:03.318Z,22.80
2018-08-30T14:07:31.577Z,23.20
2018-08-30T14:09:59.870Z,23.30
2018-08-30T14:12:28.338Z,23.00
2018-08-30T14:14:56.831Z,23.10
2018-08-30T14:17:25.012Z,23.30
2018-08-30T14:19:53.344Z,23.50
2018-08-30T14:22:21.876Z,23.50
2018-08-30T14:24:50.311Z,23.60
2018-08-30T14:27:18.683Z,23.60
2018-08-30T14:29:47.352Z,23.40
2018-08-30T14:32:15.763Z,23.50
2018-08-30T14:34:44.697Z,23.50
2018-08-30T14:37:13.146Z,23.30
2018-08-30T14:39:41.557Z,23.20
2018-08-30T14:42:10.016Z,23.20
2018-08-30T14:44:38.420Z,23.20
2018-08-30T14:47:06.849Z,23.30
2018-08-30T14:49:35.245Z,23.30
2018-08-30T14:52:03.780Z,23.00
2018-08-30T14:54:32.163Z,22.70
2018-08-30T14:57:00.575Z,22.60
2018-08-30T14:59:28.995Z,22.80
2018-08-30T15:01:57.382Z,22.80
2018-08-30T15:04:26.400Z,22.50
2018-08-30T15:06:54.854Z,22.60
2018-08-30T15:09:23.300Z,22.70
2018-08-30T15:11:51.708Z,22.90
2018-08-30T15:14:20.225Z,23.00
2018-08-30T15:16:48.680Z,23.10
2018-08-30T15:19:17.076Z,23.20
2018-08-30T15:21:45.546Z,23.30
2018-08-30T15:24:13.959Z,23.20
2018-08-30T15:26:43.094Z,23.20
2018-08-30T15:29:11.656Z,23.10
2018-08-30T15:31:39.894Z,22.90
2018-08-30T15:34:08.474Z,22.80
2018-08-30T15:36:36.864Z,22.30
2018-08-30T15:39:07.568Z,22.30
2018-08-30T15:41:36.107Z,22.20
2018-08-30T15:44:04.648Z,22.20
2018-08-30T15:46:33.058Z,22.10
2018-08-30T15:49:01.489Z,22.20
2018-08-30T15:51:29.900Z,22.10
2018-08-30T15:53:58.333Z,21.80
2018-08-30T15:56:26.786Z,21.90
2018-08-30T15:58:55.212Z,21.90
2018-08-30T16:01:23.655Z,21.90
2018-08-30T16:03:52.196Z,21.80
2018-08-30T16:06:20.662Z,21.70
2018-08-30T16:08:49.112Z,21.60
2018-08-30T16:11:17.665Z,21.50
2018-08-30T16:13:46.032Z,21.50
2018-08-30T16:16:14.440Z,21.50
2018-08-30T16:18:42.980Z,21.50
2018-08-30T16:21:11.329Z,21.40
2018-08-30T16:23:39.742Z,21.50
2018-08-30T16:26:08.289Z,21.60
2018-08-30T16:28:36.866Z,21.60
2018-08-30T16:31:05.402Z,21.50
2018-08-30T16:33:33.801Z,21.40
2018-08-30T16:36:02.260Z,21.30
2018-08-30T16:38:30.800Z,21.20
2018-08-30T16:40:59.266Z,21.10
2018-08-30T16:43:27.845Z,20.90
2018-08-30T16:45:56.155Z,20.90
2018-08-30T16:48:24.724Z,20.90
2018-08-30T16:50:54.343Z,21.00
2018-08-30T16:53:22.818Z,20.90
2018-08-30T16:55:51.188Z,20.80
2018-08-30T16:58:19.615Z,20.80
2018-08-30T17:00:48.096Z,20.70
2018-08-30T17:03:16.687Z,20.60
2018-08-30T17:05:45.129Z,20.60
2018-08-30T17:08:13.608Z,20.50
2018-08-30T17:10:42.041Z,20.40
2018-08-30T17:13:10.452Z,20.30
2018-08-30T17:15:38.897Z,20.20
2018-08-30T17:18:07.309Z,20.10
2018-08-30T17:20:45.016Z,20.10
2018-08-30T17:23:13.418Z,20.00
2018-08-30T17:25:42.768Z,19.90
2018-08-30T17:28:11.228Z,19.80
2018-08-30T17:30:40.021Z,19.80
2018-08-30T17:33:09.535Z,19.70
2018-08-30T17:35:38.745Z,19.60
2018-08-30T17:38:07.212Z,19.50
2018-08-30T17:40:35.997Z,19.40
2018-08-30T17:43:04.468Z,19.30
2018-08-30T17:45:33.025Z,19.30
2018-08-30T17:48:01.384Z,19.20
2018-08-30T17:50:30.101Z,19.20
2018-08-30T17:52:59.065Z,19.10
2018-08-30T17:55:27.568Z,19.00
2018-08-30T17:57:56.298Z,18.90
2018-08-30T18:00:24.807Z,18.80
2018-08-30T18:02:53.294Z,18.70
2018-08-30T18:05:21.826Z,18.60
2018-08-30T18:07:50.383Z,18.50
2018-08-30T18:10:18.808Z,18.40
2018-08-30T18:12:47.253Z,18.30
2018-08-30T18:15:16.477Z,18.20
2018-08-30T18:17:45.868Z,18.10
2018-08-30T18:20:14.672Z,18.10
2018-08-30T18:22:43.143Z,18.00
2018-08-30T18:25:11.729Z,17.80
2018-08-30T18:27:40.132Z,17.70
2018-08-30T18:30:09.874Z,17.70
2018-08-30T18:32:38.617Z,17.60
2018-08-30T18:35:08.677Z,17.50
2018-08-30T18:37:37.530Z,17.50
2018-08-30T18:40:07.023Z,17.40
2018-08-30T18:42:35.498Z,17.30
2018-08-30T18:45:03.987Z,17.20
2018-08-30T18:47:32.452Z,17.20
2018-08-30T18:50:00.985Z,17.20
2018-08-30T18:52:29.410Z,17.10
2018-08-30T18:54:57.833Z,17.10
2018-08-30T18:57:26.347Z,17.00
2018-08-30T18:59:54.759Z,17.00
2018-08-30T19:02:23.285Z,16.90
2018-08-30T19:04:51.899Z,16.90
2018-08-30T19:07:20.771Z,16.80
2018-08-30T19:09:49.279Z,16.70
2018-08-30T19:12:18.140Z,16.70
2018-08-30T19:14:46.575Z,16.60
2018-08-30T19:17:20.509Z,16.60
2018-08-30T19:19:49.215Z,16.50
2018-08-30T19:22:17.789Z,16.50
2018-08-30T19:24:51.916Z,16.40
2018-08-30T19:27:20.486Z,16.30
2018-08-30T19:30:55.396Z,16.30
2018-08-30T19:33:24.052Z,16.30
2018-08-30T19:35:58.225Z,16.20
2018-08-30T19:38:27.126Z,16.10
2018-08-30T19:41:01.139Z,16.10
2018-08-30T19:43:29.987Z,16.10
2018-08-30T19:45:58.550Z,16.00
2018-08-30T19:48:27.013Z,16.00
2018-08-30T19:50:55.833Z,15.90
2018-08-30T19:53:24.306Z,15.80
2018-08-30T19:55:52.701Z,15.70
2018-08-30T19:58:21.234Z,15.70
2018-08-30T20:00:49.724Z,15.60
2018-08-30T20:03:18.267Z,15.60
2018-08-30T20:05:46.776Z,15.50
2018-08-30T20:08:15.246Z,15.50
2018-08-30T20:10:43.909Z,15.40
2018-08-30T20:13:12.372Z,15.40
2018-08-30T20:15:40.832Z,15.50
2018-08-30T20:18:09.312Z,15.40
2018-08-30T20:20:37.837Z,15.30
2018-08-30T20:23:06.816Z,15.30
2018-08-30T20:25:35.297Z,15.20
2018-08-30T20:28:03.947Z,15.20
2018-08-30T20:30:32.343Z,15.20
2018-08-30T20:33:00.781Z,15.20
2018-08-30T20:35:29.206Z,15.10
2018-08-30T20:37:57.803Z,15.10
2018-08-30T20:40:26.203Z,15.00
2018-08-30T20:42:54.716Z,15.00
2018-08-30T20:45:23.533Z,15.00
2018-08-30T20:47:52.046Z,14.90
2018-08-30T20:50:20.504Z,14.90
2018-08-30T20:52:49.000Z,14.90
2018-08-30T20:55:17.487Z,14.90
2018-08-30T20:57:46.026Z,14.90
2018-08-30T21:00:14.512Z,14.80
2018-08-30T21:02:42.926Z,14.80
2018-08-30T21:05:11.380Z,14.80
2018-08-30T21:07:39.774Z,14.70
2018-08-30T21:10:08.225Z,14.70
2018-08-30T21:12:36.714Z,14.70
2018-08-30T21:15:05.342Z,14.60
2018-08-30T21:17:33.844Z,14.60
2018-08-30T21:20:02.380Z,14.50
2018-08-30T21:22:30.863Z,14.50
2018-08-30T21:24:59.297Z,14.40
2018-08-30T21:27:27.720Z,14.40
2018-08-30T21:29:56.229Z,14.40
2018-08-30T21:32:24.765Z,14.40
2018-08-30T21:34:53.148Z,14.40
2018-08-30T21:37:21.561Z,14.30
2018-08-30T21:39:50.019Z,14.30
2018-08-30T21:42:18.424Z,14.20
2018-08-30T21:44:46.830Z,14.20
2018-08-30T21:47:15.204Z,14.20
2018-08-30T21:49:43.962Z,14.20
2018-08-30T21:52:12.527Z,14.10
2018-08-30T21:54:40.956Z,14.10
2018-08-30T21:57:09.381Z,14.10
2018-08-30T21:59:37.784Z,14.00
2018-08-30T22:02:06.185Z,14.00
2018-08-30T22:04:34.566Z,13.90
2018-08-30T22:07:03.024Z,14.00
2018-08-30T22:09:31.441Z,14.00
2018-08-30T22:11:59.839Z,14.00
2018-08-30T22:14:28.280Z,13.90
2018-08-30T22:16:57.100Z,13.80
2018-08-30T22:19:25.574Z,13.90
2018-08-30T22:21:53.989Z,13.90
2018-08-30T22:24:22.417Z,13.90
2018-08-30T22:26:50.829Z,13.90
2018-08-30T22:29:19.217Z,13.80
2018-08-30T22:31:47.631Z,13.80
2018-08-30T22:34:16.030Z,13.80
2018-08-30T22:36:44.555Z,13.80
2018-08-30T22:39:12.941Z,13.80
2018-08-30T22:41:41.343Z,13.70
2018-08-30T22:44:09.749Z,13.70
2018-08-30T22:46:38.168Z,13.60
2018-08-30T22:49:06.573Z,13.60
2018-08-30T22:51:34.969Z,13.50
2018-08-30T22:54:03.812Z,13.60
2018-08-30T22:56:32.195Z,13.50
2018-08-30T22:59:00.575Z,13.40
2018-08-30T23:01:29.044Z,13.40
2018-08-30T23:03:57.429Z,13.40
2018-08-30T23:06:25.808Z,13.30
2018-08-30T23:08:54.274Z,13.30
2018-08-30T23:11:22.652Z,13.30
2018-08-30T23:13:51.053Z,13.20
2018-08-30T23:16:19.459Z,13.20
2018-08-30T23:18:47.872Z,13.20
2018-08-30T23:21:16.284Z,13.10
2018-08-30T23:23:44.671Z,13.10
2018-08-30T23:26:13.101Z,13.10
2018-08-30T23:28:41.525Z,13.10
2018-08-30T23:31:09.908Z,13.10
2018-08-30T23:33:38.348Z,13.20
2018-08-30T23:36:06.849Z,13.20
2018-08-30T23:38:35.244Z,13.20
2018-08-30T23:41:03.642Z,13.20
2018-08-30T23:43:32.074Z,13.20
2018-08-30T23:46:00.468Z,13.20
2018-08-30T23:48:28.864Z,13.20
2018-08-30T23:50:57.400Z,13.10
2018-08-30T23:53:25.797Z,13.10
2018-08-30T23:55:55.088Z,13.10
2018-08-30T23:58:34.853Z,13.10
